Time;durP1;ratioP1;P1;durP2;ratioP2;P2;SDS_P1;SDS_P2;PMS_P1;PMS_P2;Temp;Humidity;BMP_temperature;BMP_pressure;BME280_temperature;BME280_humidity;BME280_pressure;Samples;Min_cycle;Max_cycle;Signal;HPM_P1;HPM_P2
2023/12/06 00:02:03;;;;;;;42.53;16.13;;;;;;;;;;6393698;22;20013;-76
2023/12/06 00:04:30;;;;;;;40.15;15.57;;;;;;;;;;6392896;22;20523;-77
2023/12/06 00:06:55;;;;;;;41.70;16.73;;;;;;;;;;6393461;22;20011;-77
2023/12/06 00:09:21;;;;;;;43.70;17.20;;;;;;;;;;6422091;22;20001;-77
2023/12/06 00:11:46;;;;;;;45.20;17.73;;;;;;;;;;6393420;22;20403;-77
2023/12/06 00:14:12;;;;;;;43.10;17.08;;;;;;;;;;6421880;22;20020;-77
2023/12/06 00:16:40;;;;;;;42.50;18.08;;;;;;;;;;6393229;22;20009;-77
2023/12/06 00:19:06;;;;;;;39.95;16.92;;;;;;;;;;6393208;22;20096;-77
2023/12/06 00:21:31;;;;;;;44.80;18.27;;;;;;;;;;6421896;22;20397;-77
2023/12/06 00:23:57;;;;;;;50.10;19.83;;;;;;;;;;6394410;22;20088;-77
2023/12/06 00:26:22;;;;;;;55.75;19.27;;;;;;;;;;6422400;22;20024;-76
2023/12/06 00:28:47;;;;;;;49.95;19.55;;;;;;;;;;6395605;22;20020;-77
2023/12/06 00:31:13;;;;;;;48.80;19.17;;;;;;;;;;6431947;22;20009;-77
2023/12/06 00:33:38;;;;;;;50.00;19.23;;;;;;;;;;6436400;22;19993;-77
2023/12/06 00:36:04;;;;;;;44.50;17.17;;;;;;;;;;6426823;22;19997;-77
2023/12/06 00:38:31;;;;;;;49.63;18.90;;;;;;;;;;6421775;22;20394;-77
2023/12/06 00:40:56;;;;;;;60.80;20.75;;;;;;;;;;6421917;22;20013;-76
2023/12/06 00:43:22;;;;;;;36.30;14.80;;;;;;;;;;6392273;22;20679;-77
2023/12/06 00:45:47;;;;;;;45.42;17.48;;;;;;;;;;6393752;22;20054;-77
2023/12/06 00:48:12;;;;;;;46.85;17.98;;;;;;;;;;6424052;22;20050;-76
2023/12/06 00:50:38;;;;;;;43.45;17.88;;;;;;;;;;6393219;22;20023;-77
2023/12/06 00:53:03;;;;;;;49.13;19.75;;;;;;;;;;6423424;22;20089;-76
2023/12/06 00:55:28;;;;;;;41.33;17.52;;;;;;;;;;6423554;22;20016;-77
2023/12/06 00:57:54;;;;;;;47.00;18.77;;;;;;;;;;6394557;22;20005;-76
2023/12/06 01:00:19;;;;;;;43.08;17.85;;;;;;;;;;6395500;22;20103;-76
2023/12/06 01:02:45;;;;;;;42.30;17.42;;;;;;;;;;6394811;22;20017;-77
2023/12/06 01:05:10;;;;;;;45.10;16.92;;;;;;;;;;6395285;22;20032;-77
2023/12/06 01:07:36;;;;;;;41.47;14.68;;;;;;;;;;6394435;22;20005;-77
2023/12/06 01:10:02;;;;;;;37.95;14.63;;;;;;;;;;6422857;22;21057;-76
2023/12/06 01:12:27;;;;;;;43.40;14.63;;;;;;;;;;6423685;22;20065;-77
2023/12/06 01:14:53;;;;;;;46.80;17.27;;;;;;;;;;6394743;22;20442;-77
2023/12/06 01:17:18;;;;;;;35.45;12.98;;;;;;;;;;6423415;22;20013;-77
2023/12/06 01:19:43;;;;;;;43.40;15.93;;;;;;;;;;6395019;22;20576;-76
2023/12/06 01:22:09;;;;;;;39.55;17.05;;;;;;;;;;6423066;22;20009;-77
2023/12/06 01:24:34;;;;;;;46.85;16.00;;;;;;;;;;6424224;22;20065;-77
2023/12/06 01:26:59;;;;;;;39.72;14.82;;;;;;;;;;6423645;22;20021;-77
2023/12/06 01:29:25;;;;;;;37.30;15.05;;;;;;;;;;6395112;22;20016;-77
2023/12/06 01:31:50;;;;;;;46.00;16.65;;;;;;;;;;6394469;22;20013;-77
2023/12/06 01:34:15;;;;;;;43.70;16.45;;;;;;;;;;6423124;22;20028;-76
2023/12/06 01:36:41;;;;;;;34.75;15.15;;;;;;;;;;6423259;22;20042;-77
2023/12/06 01:39:07;;;;;;;39.53;15.77;;;;;;;;;;6424666;22;20031;-76
2023/12/06 01:41:33;;;;;;;36.17;14.57;;;;;;;;;;6422386;22;20009;-76
2023/12/06 01:43:58;;;;;;;32.20;14.65;;;;;;;;;;6423796;22;20101;-77
2023/12/06 01:46:24;;;;;;;39.38;14.80;;;;;;;;;;6424021;22;20097;-76
2023/12/06 01:48:52;;;;;;;34.08;14.30;;;;;;;;;;6397152;22;20013;-77
2023/12/06 01:51:19;;;;;;;38.65;14.85;;;;;;;;;;6404374;22;20007;-77
2023/12/06 01:53:45;;;;;;;35.95;14.18;;;;;;;;;;6443003;22;20021;-77
2023/12/06 01:56:11;;;;;;;34.42;14.43;;;;;;;;;;6408601;22;20013;-77
2023/12/06 01:58:38;;;;;;;33.92;14.02;;;;;;;;;;6425915;22;20010;-77
2023/12/06 02:01:07;;;;;;;35.38;14.32;;;;;;;;;;6395441;22;20013;-77
2023/12/06 02:03:34;;;;;;;34.47;14.65;;;;;;;;;;6421348;22;20452;-77
2023/12/06 02:06:02;;;;;;;33.28;13.18;;;;;;;;;;6423718;22;20384;-76
2023/12/06 02:08:27;;;;;;;34.58;14.52;;;;;;;;;;6423262;22;20009;-77
2023/12/06 02:10:53;;;;;;;32.60;14.32;;;;;;;;;;6419533;22;20464;-77
2023/12/06 02:13:18;;;;;;;36.47;15.10;;;;;;;;;;6422233;22;20120;-77
2023/12/06 02:15:45;;;;;;;34.40;13.18;;;;;;;;;;6422175;22;20824;-77
2023/12/06 02:18:11;;;;;;;33.03;13.55;;;;;;;;;;6395626;22;20005;-76
2023/12/06 02:20:37;;;;;;;38.03;14.45;;;;;;;;;;6422797;22;20013;-76
2023/12/06 02:23:05;;;;;;;34.67;14.63;;;;;;;;;;6394368;22;20026;-76
2023/12/06 02:25:30;;;;;;;35.25;13.95;;;;;;;;;;6394046;22;20009;-76
2023/12/06 02:27:57;;;;;;;38.47;13.75;;;;;;;;;;6394172;22;20053;-77
2023/12/06 02:30:23;;;;;;;40.85;15.15;;;;;;;;;;6395059;22;20686;-77
2023/12/06 02:32:48;;;;;;;39.33;15.85;;;;;;;;;;6394273;22;20010;-76
2023/12/06 02:35:20;;;;;;;42.10;15.77;;;;;;;;;;6422945;22;20010;-76
2023/12/06 02:37:49;;;;;;;42.42;14.82;;;;;;;;;;6394659;22;20014;-76
2023/12/06 02:40:15;;;;;;;36.08;14.82;;;;;;;;;;6394039;22;20010;-77
2023/12/06 02:42:40;;;;;;;46.80;14.68;;;;;;;;;;6423132;22;20054;-77
2023/12/06 02:45:06;;;;;;;32.55;13.55;;;;;;;;;;6394273;22;20001;-77
2023/12/06 02:47:31;;;;;;;36.78;14.27;;;;;;;;;;6394217;22;20017;-76
2023/12/06 02:49:57;;;;;;;34.85;14.57;;;;;;;;;;6393437;22;20009;-77
2023/12/06 02:52:22;;;;;;;42.25;15.30;;;;;;;;;;6421897;22;20092;-77
2023/12/06 02:54:48;;;;;;;35.85;13.57;;;;;;;;;;6394007;22;20016;-76
2023/12/06 02:57:13;;;;;;;42.83;14.40;;;;;;;;;;6423406;22;20000;-76
2023/12/06 02:59:39;;;;;;;37.70;14.23;;;;;;;;;;6393586;22;20019;-76
2023/12/06 03:02:04;;;;;;;33.75;13.20;;;;;;;;;;6394874;22;20013;-76
2023/12/06 03:04:30;;;;;;;34.38;12.98;;;;;;;;;;6421473;22;20032;-76
2023/12/06 03:06:55;;;;;;;31.92;14.07;;;;;;;;;;6422633;22;20807;-76
2023/12/06 03:09:21;;;;;;;39.47;13.73;;;;;;;;;;6396136;22;20029;-77
2023/12/06 03:11:46;;;;;;;32.78;13.98;;;;;;;;;;6403204;22;20017;-77
2023/12/06 03:14:11;;;;;;;29.88;12.57;;;;;;;;;;6409397;22;20066;-76
2023/12/06 03:16:37;;;;;;;28.65;12.73;;;;;;;;;;6398908;22;20092;-76
2023/12/06 03:19:02;;;;;;;29.27;11.50;;;;;;;;;;6422317;22;20599;-77
2023/12/06 03:21:28;;;;;;;32.72;12.68;;;;;;;;;;6393538;22;20001;-77
2023/12/06 03:23:53;;;;;;;37.28;13.48;;;;;;;;;;6394564;22;20080;-76
2023/12/06 03:26:19;;;;;;;34.80;14.50;;;;;;;;;;6422055;22;20029;-76
2023/12/06 03:28:44;;;;;;;35.97;13.50;;;;;;;;;;6393010;22;20020;-77
2023/12/06 03:31:09;;;;;;;35.40;13.98;;;;;;;;;;6421875;22;20473;-77
2023/12/06 03:33:35;;;;;;;40.17;14.77;;;;;;;;;;6393603;22;19993;-77
2023/12/06 03:36:00;;;;;;;35.75;13.77;;;;;;;;;;6393401;22;20022;-76
2023/12/06 03:38:26;;;;;;;35.30;13.43;;;;;;;;;;6393431;22;20451;-77
2023/12/06 03:40:51;;;;;;;50.85;16.58;;;;;;;;;;6421557;22;20057;-76
2023/12/06 03:43:17;;;;;;;35.25;14.38;;;;;;;;;;6393932;22;20085;-76
2023/12/06 03:45:43;;;;;;;33.45;13.25;;;;;;;;;;6392703;22;20008;-77
2023/12/06 03:48:08;;;;;;;44.13;15.00;;;;;;;;;;6423141;22;20002;-76
2023/12/06 03:50:34;;;;;;;35.30;13.70;;;;;;;;;;6392304;22;20036;-76
2023/12/06 03:52:59;;;;;;;40.38;13.48;;;;;;;;;;6393744;22;20041;-76
2023/12/06 03:55:25;;;;;;;30.75;12.57;;;;;;;;;;6421583;22;20360;-77
2023/12/06 03:57:50;;;;;;;36.08;13.40;;;;;;;;;;6421118;22;20028;-77
2023/12/06 04:00:16;;;;;;;36.80;14.25;;;;;;;;;;6422428;22;20000;-76
2023/12/06 04:02:41;;;;;;;32.42;13.23;;;;;;;;;;6393158;22;20017;-77
2023/12/06 04:05:08;;;;;;;34.63;13.88;;;;;;;;;;6421370;22;20100;-77
2023/12/06 04:07:33;;;;;;;33.58;12.23;;;;;;;;;;6393252;22;20009;-77
2023/12/06 04:09:58;;;;;;;32.80;11.88;;;;;;;;;;6422078;22;20037;-77
2023/12/06 04:12:24;;;;;;;38.33;13.30;;;;;;;;;;6421418;22;20008;-76
2023/12/06 04:14:49;;;;;;;31.73;13.32;;;;;;;;;;6393947;22;19993;-76
2023/12/06 04:17:15;;;;;;;34.25;12.98;;;;;;;;;;6393128;22;20005;-76
2023/12/06 04:19:40;;;;;;;32.90;13.50;;;;;;;;;;6421700;22;20482;-76
2023/12/06 04:22:06;;;;;;;34.72;13.30;;;;;;;;;;6421786;22;20005;-76
2023/12/06 04:24:32;;;;;;;26.55;10.85;;;;;;;;;;6421300;22;20089;-76
2023/12/06 04:26:57;;;;;;;36.60;13.65;;;;;;;;;;6394353;22;20507;-76
2023/12/06 04:29:23;;;;;;;37.50;13.25;;;;;;;;;;6423344;22;20013;-76
2023/12/06 04:31:48;;;;;;;31.85;13.25;;;;;;;;;;6429726;22;20009;-77
2023/12/06 04:34:14;;;;;;;33.47;14.18;;;;;;;;;;6412382;22;20493;-77
2023/12/06 04:36:40;;;;;;;39.28;14.05;;;;;;;;;;6407791;22;20297;-77
2023/12/06 04:39:05;;;;;;;29.98;11.93;;;;;;;;;;6425287;22;20375;-77
2023/12/06 04:41:30;;;;;;;38.85;14.95;;;;;;;;;;6423066;22;20010;-77
2023/12/06 04:43:56;;;;;;;35.13;13.27;;;;;;;;;;6393352;22;20041;-76
2023/12/06 04:46:21;;;;;;;34.60;14.10;;;;;;;;;;6422426;22;20002;-76
2023/12/06 04:48:47;;;;;;;35.40;14.05;;;;;;;;;;6392965;22;20013;-78
2023/12/06 04:51:12;;;;;;;28.45;12.57;;;;;;;;;;6394023;22;20730;-76
2023/12/06 04:53:38;;;;;;;30.60;12.57;;;;;;;;;;6421483;22;20333;-77
2023/12/06 04:56:03;;;;;;;32.28;13.60;;;;;;;;;;6421628;22;20080;-76
2023/12/06 04:58:29;;;;;;;30.88;11.90;;;;;;;;;;6421040;22;20027;-77
2023/12/06 05:00:55;;;;;;;26.80;10.80;;;;;;;;;;6393353;22;20037;-76
2023/12/06 05:03:20;;;;;;;29.27;12.35;;;;;;;;;;6393384;22;20625;-77
2023/12/06 05:05:45;;;;;;;30.48;11.18;;;;;;;;;;6420561;22;20085;-77
2023/12/06 05:08:11;;;;;;;33.65;12.55;;;;;;;;;;6422067;22;20033;-77
2023/12/06 05:10:36;;;;;;;33.45;13.25;;;;;;;;;;6393177;22;20096;-77
2023/12/06 05:13:01;;;;;;;32.78;12.27;;;;;;;;;;6392865;22;20006;-77
2023/12/06 05:15:27;;;;;;;29.08;11.88;;;;;;;;;;6421427;22;20499;-77
2023/12/06 05:17:52;;;;;;;33.00;11.70;;;;;;;;;;6393238;22;20018;-77
2023/12/06 05:20:18;;;;;;;37.38;12.65;;;;;;;;;;6421919;22;20093;-77
2023/12/06 05:22:43;;;;;;;29.92;10.95;;;;;;;;;;6391813;22;20010;-77
2023/12/06 05:25:09;;;;;;;27.70;10.35;;;;;;;;;;6422147;22;20077;-77
2023/12/06 05:27:34;;;;;;;29.50;12.20;;;;;;;;;;6392106;22;20329;-77
2023/12/06 05:29:59;;;;;;;28.10;10.82;;;;;;;;;;6422150;22;20001;-77
2023/12/06 05:32:25;;;;;;;28.13;11.52;;;;;;;;;;6392289;22;20388;-77
2023/12/06 05:34:50;;;;;;;32.38;11.48;;;;;;;;;;6423805;22;20013;-76
2023/12/06 05:37:15;;;;;;;23.67;11.13;;;;;;;;;;6393853;22;20055;-77
2023/12/06 05:39:41;;;;;;;25.73;11.32;;;;;;;;;;6423754;22;20497;-77
2023/12/06 05:42:07;;;;;;;32.35;10.85;;;;;;;;;;6394857;22;19994;-77
2023/12/06 05:44:33;;;;;;;22.98;10.23;;;;;;;;;;6395180;22;20608;-77
2023/12/06 05:46:59;;;;;;;27.88;10.55;;;;;;;;;;6423400;22;20020;-77
2023/12/06 05:49:24;;;;;;;28.65;10.05;;;;;;;;;;6424801;22;20006;-77
2023/12/06 05:51:50;;;;;;;22.40;9.48;;;;;;;;;;6430128;22;20029;-77
2023/12/06 05:54:15;;;;;;;24.95;10.13;;;;;;;;;;6439398;22;19996;-77
2023/12/06 05:56:40;;;;;;;17.42;8.48;;;;;;;;;;6437063;22;20095;-77
2023/12/06 05:59:06;;;;;;;23.58;8.80;;;;;;;;;;6399294;22;20016;-77
2023/12/06 06:01:31;;;;;;;31.60;10.13;;;;;;;;;;6423436;22;20020;-77
2023/12/06 06:03:57;;;;;;;26.20;10.43;;;;;;;;;;6423148;22;20364;-77
2023/12/06 06:06:22;;;;;;;22.75;9.52;;;;;;;;;;6394304;22;20012;-77
2023/12/06 06:08:47;;;;;;;24.17;10.00;;;;;;;;;;6422527;22;20009;-78
2023/12/06 06:11:14;;;;;;;27.77;9.95;;;;;;;;;;6394410;22;20081;-77
2023/12/06 06:13:39;;;;;;;30.23;9.75;;;;;;;;;;6393798;22;20013;-77
2023/12/06 06:16:06;;;;;;;24.58;10.05;;;;;;;;;;6423106;22;20632;-77
2023/12/06 06:18:31;;;;;;;22.42;9.10;;;;;;;;;;6394796;22;19997;-77
2023/12/06 06:20:58;;;;;;;24.77;9.55;;;;;;;;;;6423454;22;20004;-77
2023/12/06 06:23:23;;;;;;;24.42;8.55;;;;;;;;;;6422982;22;20124;-77
2023/12/06 06:25:49;;;;;;;22.50;8.82;;;;;;;;;;6394457;22;20468;-77
2023/12/06 06:28:15;;;;;;;18.92;8.65;;;;;;;;;;6423098;22;20058;-77
2023/12/06 06:30:40;;;;;;;18.70;8.27;;;;;;;;;;6394739;22;20062;-77
2023/12/06 06:33:05;;;;;;;22.42;8.80;;;;;;;;;;6422052;22;20580;-77
2023/12/06 06:35:31;;;;;;;17.88;8.85;;;;;;;;;;6394594;22;20035;-77
2023/12/06 06:37:56;;;;;;;19.35;8.15;;;;;;;;;;6395061;22;20014;-77
2023/12/06 06:40:24;;;;;;;22.50;9.07;;;;;;;;;;6394187;22;20413;-77
2023/12/06 06:42:50;;;;;;;20.40;8.88;;;;;;;;;;6394615;22;20019;-77
2023/12/06 06:45:15;;;;;;;18.60;8.98;;;;;;;;;;6423471;22;20173;-78
2023/12/06 06:47:41;;;;;;;18.98;9.48;;;;;;;;;;6423402;22;20031;-77
2023/12/06 06:50:06;;;;;;;21.10;8.95;;;;;;;;;;6394447;22;20009;-77
2023/12/06 06:52:36;;;;;;;40.30;11.95;;;;;;;;;;6423292;22;20009;-77
2023/12/06 06:55:02;;;;;;;43.63;17.58;;;;;;;;;;6422782;22;20496;-77
2023/12/06 06:57:27;;;;;;;39.33;16.17;;;;;;;;;;6394769;22;19997;-77
2023/12/06 06:59:52;;;;;;;26.52;12.07;;;;;;;;;;6424119;22;20006;-77
2023/12/06 07:02:18;;;;;;;27.17;11.73;;;;;;;;;;6394486;22;20017;-77
2023/12/06 07:04:44;;;;;;;29.92;13.35;;;;;;;;;;6394441;22;20086;-77
2023/12/06 07:07:09;;;;;;;24.85;9.48;;;;;;;;;;6423600;22;20076;-77
2023/12/06 07:09:35;;;;;;;20.02;9.85;;;;;;;;;;6424897;22;20437;-77
2023/12/06 07:12:02;;;;;;;30.40;11.88;;;;;;;;;;6404452;22;19997;-77
2023/12/06 07:14:27;;;;;;;24.52;10.63;;;;;;;;;;6441972;22;20026;-77
2023/12/06 07:16:54;;;;;;;24.33;9.88;;;;;;;;;;6436577;22;20073;-77
2023/12/06 07:19:19;;;;;;;29.70;11.38;;;;;;;;;;6424742;22;20006;-77
2023/12/06 07:21:45;;;;;;;24.65;10.50;;;;;;;;;;6423588;22;20009;-77
2023/12/06 07:24:11;;;;;;;23.70;10.25;;;;;;;;;;6424126;22;20360;-77
2023/12/06 07:26:37;;;;;;;26.27;11.00;;;;;;;;;;6423199;22;20021;-77
2023/12/06 07:29:02;;;;;;;29.38;11.25;;;;;;;;;;6394302;22;20009;-77
2023/12/06 07:31:28;;;;;;;58.45;17.10;;;;;;;;;;6394286;22;20456;-77
2023/12/06 07:33:53;;;;;;;53.55;17.02;;;;;;;;;;6422062;22;20005;-77
2023/12/06 07:36:19;;;;;;;26.25;11.30;;;;;;;;;;6394673;22;20066;-77
2023/12/06 07:38:44;;;;;;;22.38;10.52;;;;;;;;;;6421752;22;20009;-77
2023/12/06 07:41:09;;;;;;;24.05;9.82;;;;;;;;;;6393303;22;20013;-76
2023/12/06 07:43:36;;;;;;;32.33;12.30;;;;;;;;;;6419318;22;20033;-76
2023/12/06 07:46:02;;;;;;;31.42;12.60;;;;;;;;;;6393026;22;20005;-77
2023/12/06 07:48:27;;;;;;;21.38;10.05;;;;;;;;;;6420249;22;19997;-77
2023/12/06 07:50:53;;;;;;;22.13;9.52;;;;;;;;;;6420992;22;20321;-78
2023/12/06 07:53:19;;;;;;;21.73;9.77;;;;;;;;;;6392143;22;20048;-78
2023/12/06 07:55:45;;;;;;;23.23;10.23;;;;;;;;;;6420871;22;20050;-78
2023/12/06 07:58:10;;;;;;;19.92;9.60;;;;;;;;;;6420912;22;20005;-78
2023/12/06 08:00:36;;;;;;;21.30;8.20;;;;;;;;;;6392711;22;20001;-77
2023/12/06 08:03:02;;;;;;;25.20;9.52;;;;;;;;;;6393907;22;20096;-77
2023/12/06 08:05:28;;;;;;;22.80;10.30;;;;;;;;;;6393611;22;20041;-78
2023/12/06 08:07:53;;;;;;;20.17;9.07;;;;;;;;;;6421732;22;20476;-78
2023/12/06 08:10:22;;;;;;;22.73;10.32;;;;;;;;;;6422157;22;20394;-78
2023/12/06 08:12:49;;;;;;;24.20;10.05;;;;;;;;;;6393753;22;20005;-77
2023/12/06 08:15:14;;;;;;;23.27;10.13;;;;;;;;;;6393873;22;20005;-78
2023/12/06 08:17:41;;;;;;;23.90;9.95;;;;;;;;;;6393433;22;20100;-78
2023/12/06 08:20:08;;;;;;;19.38;9.10;;;;;;;;;;6393430;22;20353;-78
2023/12/06 08:22:33;;;;;;;26.77;8.77;;;;;;;;;;6391934;22;20006;-78
2023/12/06 08:24:59;;;;;;;21.48;9.40;;;;;;;;;;6421959;22;20032;-77
2023/12/06 08:27:29;;;;;;;24.30;8.85;;;;;;;;;;6422035;22;20077;-77
2023/12/06 08:29:55;;;;;;;21.35;9.07;;;;;;;;;;6424859;22;20001;-78
2023/12/06 08:32:21;;;;;;;23.65;10.48;;;;;;;;;;6403044;22;20013;-77
2023/12/06 08:34:47;;;;;;;23.73;9.15;;;;;;;;;;6436727;22;20018;-77
2023/12/06 08:37:12;;;;;;;21.33;8.90;;;;;;;;;;6396383;22;20006;-78
2023/12/06 08:39:37;;;;;;;24.83;10.27;;;;;;;;;;6394164;22;20005;-78
2023/12/06 08:42:04;;;;;;;23.02;9.13;;;;;;;;;;6393468;22;20013;-77
2023/12/06 08:44:29;;;;;;;22.83;8.70;;;;;;;;;;6422324;22;20013;-77
2023/12/06 08:46:55;;;;;;;21.63;7.95;;;;;;;;;;6421193;22;20016;-77
2023/12/06 08:49:20;;;;;;;26.73;11.07;;;;;;;;;;6421496;22;20020;-77
2023/12/06 08:51:45;;;;;;;28.30;10.82;;;;;;;;;;6421217;22;20078;-77
2023/12/06 08:54:11;;;;;;;25.63;10.38;;;;;;;;;;6393998;22;20017;-76
2023/12/06 08:56:36;;;;;;;24.40;8.52;;;;;;;;;;6390462;22;20084;-77
2023/12/06 08:59:02;;;;;;;27.25;9.57;;;;;;;;;;6423267;22;20060;-77
2023/12/06 09:01:27;;;;;;;32.42;9.35;;;;;;;;;;6432490;22;20053;-76
2023/12/06 09:03:52;;;;;;;27.13;10.07;;;;;;;;;;6427247;22;20029;-77
2023/12/06 09:06:18;;;;;;;23.15;9.07;;;;;;;;;;6422837;22;20361;-77
2023/12/06 09:08:43;;;;;;;27.63;9.63;;;;;;;;;;6394710;22;20052;-78
2023/12/06 09:11:08;;;;;;;21.83;9.68;;;;;;;;;;6424117;22;20421;-78
2023/12/06 09:13:34;;;;;;;22.83;8.98;;;;;;;;;;6395473;22;20062;-76
2023/12/06 09:15:59;;;;;;;27.83;10.88;;;;;;;;;;6395342;22;20029;-76
2023/12/06 09:18:24;;;;;;;26.83;9.90;;;;;;;;;;6395125;22;20399;-76
2023/12/06 09:20:52;;;;;;;22.10;9.00;;;;;;;;;;6395895;22;20137;-76
2023/12/06 09:23:17;;;;;;;27.73;9.05;;;;;;;;;;6394484;22;20025;-75
2023/12/06 09:25:43;;;;;;;27.80;9.73;;;;;;;;;;6395048;22;20017;-74
2023/12/06 09:28:08;;;;;;;22.23;8.95;;;;;;;;;;6394434;22;20010;-77
2023/12/06 09:30:34;;;;;;;26.85;8.95;;;;;;;;;;6394759;22;20001;-77
2023/12/06 09:32:59;;;;;;;24.95;9.60;;;;;;;;;;6424173;22;20064;-76
2023/12/06 09:35:24;;;;;;;22.15;8.88;;;;;;;;;;6395180;22;20013;-77
2023/12/06 09:37:50;;;;;;;22.00;9.82;;;;;;;;;;6423352;22;20033;-77
2023/12/06 09:40:15;;;;;;;23.05;8.82;;;;;;;;;;6422339;22;20058;-76
2023/12/06 09:42:44;;;;;;;24.70;8.88;;;;;;;;;;6421170;22;19998;-76
2023/12/06 09:45:10;;;;;;;16.73;8.15;;;;;;;;;;6395415;22;20035;-76
2023/12/06 09:47:35;;;;;;;21.65;9.13;;;;;;;;;;6393065;22;20009;-76
2023/12/06 09:50:01;;;;;;;18.63;8.00;;;;;;;;;;6396582;22;20016;-76
2023/12/06 09:52:27;;;;;;;22.42;9.23;;;;;;;;;;6436436;22;20005;-77
2023/12/06 09:54:52;;;;;;;19.02;7.90;;;;;;;;;;6413463;22;20001;-76
2023/12/06 09:57:18;;;;;;;33.55;10.27;;;;;;;;;;6396926;22;19997;-76
2023/12/06 09:59:43;;;;;;;24.55;9.75;;;;;;;;;;6422115;22;20397;-77
2023/12/06 10:02:09;;;;;;;20.23;9.25;;;;;;;;;;6393645;22;20013;-77
2023/12/06 10:04:35;;;;;;;22.27;9.05;;;;;;;;;;6374908;22;20109;-77
2023/12/06 10:07:01;;;;;;;20.92;9.43;;;;;;;;;;6393654;22;20005;-76
2023/12/06 10:09:26;;;;;;;23.23;9.35;;;;;;;;;;6393170;22;20820;-77
2023/12/06 10:11:52;;;;;;;19.45;9.13;;;;;;;;;;6394336;22;20001;-76
2023/12/06 10:14:18;;;;;;;17.48;8.15;;;;;;;;;;6419410;22;20508;-77
2023/12/06 10:16:48;;;;;;;22.75;8.45;;;;;;;;;;6417338;22;20804;-77
2023/12/06 10:19:21;;;;;;;17.77;7.78;;;;;;;;;;6420720;22;20508;-77
2023/12/06 10:21:50;;;;;;;21.20;8.05;;;;;;;;;;6393327;22;20001;-76
2023/12/06 10:24:15;;;;;;;27.17;8.98;;;;;;;;;;6392562;22;20005;-76
2023/12/06 10:26:41;;;;;;;22.20;7.80;;;;;;;;;;6421839;22;20410;-77
2023/12/06 10:29:06;;;;;;;28.55;9.02;;;;;;;;;;6421836;22;20013;-77
2023/12/06 10:31:38;;;;;;;25.42;8.02;;;;;;;;;;6392215;22;20013;-77
2023/12/06 10:34:05;;;;;;;22.23;9.05;;;;;;;;;;6392484;22;20016;-77
2023/12/06 10:36:31;;;;;;;24.85;9.13;;;;;;;;;;6393012;22;20448;-76
2023/12/06 10:38:58;;;;;;;25.40;9.55;;;;;;;;;;6392659;22;20012;-76
2023/12/06 10:41:25;;;;;;;22.67;8.10;;;;;;;;;;6394159;22;20009;-77
2023/12/06 10:43:55;;;;;;;18.27;7.57;;;;;;;;;;6392072;22;20020;-77
2023/12/06 10:46:21;;;;;;;18.52;7.53;;;;;;;;;;6420431;22;20040;-77
2023/12/06 10:48:48;;;;;;;15.07;6.78;;;;;;;;;;6421428;22;20005;-77
2023/12/06 10:51:16;;;;;;;20.20;8.30;;;;;;;;;;6421670;22;20860;-77
2023/12/06 10:53:43;;;;;;;21.65;7.95;;;;;;;;;;6391686;22;20025;-77
2023/12/06 10:56:09;;;;;;;13.70;5.68;;;;;;;;;;6421485;22;20033;-77
2023/12/06 10:58:36;;;;;;;16.60;7.43;;;;;;;;;;6392874;22;20018;-77
2023/12/06 11:01:02;;;;;;;15.70;7.10;;;;;;;;;;6393043;22;20402;-77
2023/12/06 11:03:27;;;;;;;20.92;6.78;;;;;;;;;;6417582;22;20626;-77
2023/12/06 11:05:55;;;;;;;24.10;9.07;;;;;;;;;;6394572;22;20129;-78
2023/12/06 11:08:45;;;;;;;19.52;8.45;;;;;;;;;;6392237;22;20017;-77
2023/12/06 11:11:29;;;;;;;20.90;8.20;;;;;;;;;;6403856;22;20886;-77
2023/12/06 11:14:23;;;;;;;19.45;7.28;;;;;;;;;;6436390;22;20013;-77
2023/12/06 11:17:16;;;;;;;15.38;6.50;;;;;;;;;;6392904;22;20092;-76
2023/12/06 11:19:42;;;;;;;17.73;6.07;;;;;;;;;;6377257;22;20010;-76
2023/12/06 11:22:08;;;;;;;16.27;6.43;;;;;;;;;;6416760;22;20112;-76
2023/12/06 11:24:35;;;;;;;14.52;6.97;;;;;;;;;;6390057;22;20033;-76
2023/12/06 11:27:01;;;;;;;15.65;6.53;;;;;;;;;;6386699;22;20011;-77
2023/12/06 11:29:27;;;;;;;14.45;6.40;;;;;;;;;;6390940;22;20096;-76
2023/12/06 11:31:58;;;;;;;15.05;5.93;;;;;;;;;;6420174;22;20013;-76
2023/12/06 11:34:33;;;;;;;15.05;7.05;;;;;;;;;;6392820;22;20184;-76
2023/12/06 11:36:58;;;;;;;18.60;6.10;;;;;;;;;;6419692;22;20065;-75
2023/12/06 11:39:25;;;;;;;13.10;6.72;;;;;;;;;;6365903;22;20055;-76
2023/12/06 11:41:55;;;;;;;23.75;7.50;;;;;;;;;;6392830;22;19997;-77
2023/12/06 11:44:22;;;;;;;16.75;6.72;;;;;;;;;;6420609;22;20021;-77
2023/12/06 11:46:51;;;;;;;18.88;6.75;;;;;;;;;;6419256;22;20013;-76
2023/12/06 11:49:22;;;;;;;15.82;6.47;;;;;;;;;;6391527;22;20436;-76
2023/12/06 11:51:58;;;;;;;15.50;7.40;;;;;;;;;;6392312;22;20402;-77
2023/12/06 11:54:24;;;;;;;19.10;7.18;;;;;;;;;;6392549;22;20005;-77
2023/12/06 11:56:50;;;;;;;19.40;7.05;;;;;;;;;;6420616;22;20053;-77
2023/12/06 11:59:15;;;;;;;16.45;7.32;;;;;;;;;;6392233;22;20654;-77
2023/12/06 12:01:41;;;;;;;16.10;7.65;;;;;;;;;;6390099;22;20017;-77
2023/12/06 12:04:07;;;;;;;20.33;7.80;;;;;;;;;;6392098;22;20018;-77
2023/12/06 12:06:32;;;;;;;17.08;6.13;;;;;;;;;;6392202;22;20009;-77
2023/12/06 12:08:59;;;;;;;18.10;7.45;;;;;;;;;;6421006;22;20095;-77
2023/12/06 12:11:26;;;;;;;18.55;8.05;;;;;;;;;;6421179;22;20639;-77
2023/12/06 12:13:52;;;;;;;16.85;7.13;;;;;;;;;;6420577;22;20012;-77
2023/12/06 12:16:19;;;;;;;10.93;5.47;;;;;;;;;;6420515;22;20085;-78
2023/12/06 12:18:45;;;;;;;12.55;6.93;;;;;;;;;;6392460;22;20374;-77
2023/12/06 12:21:16;;;;;;;19.20;7.28;;;;;;;;;;6391951;22;20012;-77
2023/12/06 12:23:42;;;;;;;15.75;6.43;;;;;;;;;;6422508;22;20017;-78
2023/12/06 12:26:13;;;;;;;17.35;7.00;;;;;;;;;;6422457;22;20461;-78
2023/12/06 12:28:39;;;;;;;15.27;7.10;;;;;;;;;;6396688;22;20369;-77
2023/12/06 12:31:07;;;;;;;19.70;7.40;;;;;;;;;;6401751;22;20009;-78
2023/12/06 12:33:34;;;;;;;17.95;7.55;;;;;;;;;;6439994;22;19994;-76
2023/12/06 12:36:00;;;;;;;14.57;6.95;;;;;;;;;;6402366;22;19993;-76
2023/12/06 12:38:26;;;;;;;16.13;8.90;;;;;;;;;;6424557;22;20010;-77
2023/12/06 12:40:52;;;;;;;18.02;7.25;;;;;;;;;;6424145;22;20017;-77
2023/12/06 12:43:18;;;;;;;15.43;7.05;;;;;;;;;;6427703;22;20010;-77
2023/12/06 12:45:43;;;;;;;14.88;7.38;;;;;;;;;;6406650;22;20409;-77
2023/12/06 12:48:09;;;;;;;15.05;7.00;;;;;;;;;;6434194;22;20004;-76
2023/12/06 12:50:37;;;;;;;14.98;7.25;;;;;;;;;;6422794;22;20442;-77
2023/12/06 12:53:02;;;;;;;17.77;7.10;;;;;;;;;;6395205;22;20009;-78
2023/12/06 12:55:28;;;;;;;14.68;6.15;;;;;;;;;;6422603;22;20072;-78
2023/12/06 12:57:55;;;;;;;11.35;5.45;;;;;;;;;;6421652;22;20191;-77
2023/12/06 13:00:23;;;;;;;19.08;7.32;;;;;;;;;;6423313;22;20809;-77
2023/12/06 13:02:50;;;;;;;11.23;5.28;;;;;;;;;;6422080;22;20001;-77
2023/12/06 13:05:17;;;;;;;13.30;6.30;;;;;;;;;;6393591;22;20025;-77
2023/12/06 13:07:43;;;;;;;12.27;6.25;;;;;;;;;;6393700;22;20082;-76
2023/12/06 13:10:10;;;;;;;13.73;6.97;;;;;;;;;;6394487;22;20108;-77
2023/12/06 13:12:37;;;;;;;14.95;7.43;;;;;;;;;;6393489;22;20044;-77
2023/12/06 13:15:08;;;;;;;13.15;6.53;;;;;;;;;;6391957;22;20084;-77
2023/12/06 13:17:33;;;;;;;16.70;7.40;;;;;;;;;;6393719;22;20010;-77
2023/12/06 13:19:58;;;;;;;16.55;6.22;;;;;;;;;;6393709;22;20009;-76
2023/12/06 13:22:24;;;;;;;11.85;6.90;;;;;;;;;;6392650;22;20062;-77
2023/12/06 13:24:49;;;;;;;12.07;5.88;;;;;;;;;;6394345;22;20017;-77
2023/12/06 13:27:15;;;;;;;12.15;5.50;;;;;;;;;;6393490;22;20381;-77
2023/12/06 13:29:40;;;;;;;14.32;6.28;;;;;;;;;;6392700;22;20009;-77
2023/12/06 13:32:07;;;;;;;11.00;5.70;;;;;;;;;;6419897;22;20010;-77
2023/12/06 13:34:32;;;;;;;9.82;4.88;;;;;;;;;;6421492;22;20563;-77
2023/12/06 13:36:58;;;;;;;11.82;5.25;;;;;;;;;;6421470;22;20009;-76
2023/12/06 13:39:26;;;;;;;11.32;5.28;;;;;;;;;;6422910;22;20001;-77
2023/12/06 13:41:55;;;;;;;13.63;6.15;;;;;;;;;;6421431;22;20013;-76
2023/12/06 13:44:21;;;;;;;11.88;5.78;;;;;;;;;;6394743;22;20105;-76
2023/12/06 13:46:47;;;;;;;12.15;5.72;;;;;;;;;;6392399;22;20033;-76
2023/12/06 13:49:13;;;;;;;14.70;5.40;;;;;;;;;;6427738;22;20361;-77
2023/12/06 13:51:39;;;;;;;14.43;6.72;;;;;;;;;;6407261;22;20002;-76
2023/12/06 13:54:04;;;;;;;15.23;6.28;;;;;;;;;;6403635;22;20001;-76
2023/12/06 13:56:34;;;;;;;13.98;5.38;;;;;;;;;;6421238;22;20009;-76
2023/12/06 13:59:00;;;;;;;11.75;6.50;;;;;;;;;;6389465;22;20009;-76
2023/12/06 14:01:25;;;;;;;14.10;5.90;;;;;;;;;;6421004;22;20528;-76
2023/12/06 14:03:55;;;;;;;12.27;5.05;;;;;;;;;;6419296;22;20051;-76
2023/12/06 14:06:22;;;;;;;13.90;4.90;;;;;;;;;;6421631;22;20004;-77
2023/12/06 14:08:47;;;;;;;10.02;4.93;;;;;;;;;;6420985;22;20013;-76
2023/12/06 14:11:13;;;;;;;10.00;5.15;;;;;;;;;;6421967;22;20684;-76
2023/12/06 14:13:38;;;;;;;15.60;5.57;;;;;;;;;;6391698;22;20006;-77
2023/12/06 14:16:04;;;;;;;9.57;4.72;;;;;;;;;;6422114;22;20017;-77
2023/12/06 14:18:29;;;;;;;18.85;6.00;;;;;;;;;;6422119;22;20004;-76